createdAt,value
2023-01-31T00:00:37.560Z,-0.46
2023-01-31T00:03:07.996Z,-0.45
2023-01-31T00:05:37.134Z,-0.44
2023-01-31T00:08:06.052Z,-0.43
2023-01-31T00:10:34.930Z,-0.43
2023-01-31T00:13:03.624Z,-0.41
2023-01-31T00:15:32.945Z,-0.41
2023-01-31T00:18:01.503Z,-0.44
2023-01-31T00:20:29.884Z,-0.44
2023-01-31T00:22:58.564Z,-0.44
2023-01-31T00:25:26.861Z,-0.43
2023-01-31T00:27:55.421Z,-0.43
2023-01-31T00:30:24.001Z,-0.43
2023-01-31T00:32:52.585Z,-0.43
2023-01-31T00:35:21.331Z,-0.39
2023-01-31T00:37:49.950Z,-0.42
2023-01-31T00:40:18.536Z,-0.38
2023-01-31T00:42:47.225Z,-0.36
2023-01-31T00:45:16.617Z,-0.35
2023-01-31T00:47:45.300Z,-0.34
2023-01-31T00:50:15.417Z,-0.35
2023-01-31T00:52:44.222Z,-0.36
2023-01-31T00:55:12.685Z,-0.36
2023-01-31T00:57:41.059Z,-0.34
2023-01-31T01:00:10.359Z,-0.32
2023-01-31T01:02:39.655Z,-0.34
2023-01-31T01:05:09.056Z,-0.30
2023-01-31T01:07:37.841Z,-0.29
2023-01-31T01:10:07.141Z,-0.29
2023-01-31T01:12:37.258Z,-0.26
2023-01-31T01:15:09.935Z,-0.26
2023-01-31T01:17:38.210Z,-0.21
2023-01-31T01:20:08.848Z,-0.17
2023-01-31T01:22:43.061Z,-0.13
2023-01-31T01:25:11.531Z,-0.12
2023-01-31T01:27:40.114Z,-0.10
2023-01-31T01:30:09.545Z,-0.09
2023-01-31T01:32:39.343Z,-0.10
2023-01-31T01:35:10.578Z,-0.11
2023-01-31T01:37:39.568Z,-0.08
2023-01-31T01:40:09.472Z,-0.09
2023-01-31T01:42:37.949Z,-0.12
2023-01-31T01:45:19.318Z,-0.12
2023-01-31T01:48:00.009Z,-0.10
2023-01-31T01:50:35.240Z,-0.13
2023-01-31T01:53:18.356Z,-0.17
2023-01-31T01:55:55.129Z,-0.12
2023-01-31T01:58:27.780Z,-0.15
2023-01-31T02:00:56.310Z,-0.16
2023-01-31T02:03:24.989Z,-0.15
2023-01-31T02:05:55.540Z,-0.12
2023-01-31T02:08:24.692Z,-0.10
2023-01-31T02:11:04.879Z,-0.04
2023-01-31T02:13:33.222Z,-0.04
2023-01-31T02:16:01.599Z,-0.04
2023-01-31T02:18:30.185Z,-0.02
2023-01-31T02:21:37.038Z,-0.01
2023-01-31T02:24:17.729Z,0.07
2023-01-31T02:27:10.162Z,0.05
2023-01-31T02:30:14.802Z,0.03
2023-01-31T02:32:51.769Z,0.01
2023-01-31T02:35:24.731Z,0.03
2023-01-31T02:38:11.971Z,0.03
2023-01-31T02:40:54.160Z,0.03
2023-01-31T02:43:31.558Z,0.02
2023-01-31T02:46:07.858Z,-0.00
2023-01-31T02:48:53.401Z,-0.02
2023-01-31T02:52:03.658Z,-0.03
2023-01-31T02:54:52.411Z,-0.01
2023-01-31T02:57:21.092Z,0.02
2023-01-31T02:59:49.682Z,0.05
2023-01-31T03:02:18.441Z,0.05
2023-01-31T03:04:48.277Z,0.04
2023-01-31T03:07:18.838Z,0.04
2023-01-31T03:10:12.060Z,0.03
2023-01-31T03:12:53.851Z,0.04
2023-01-31T03:16:02.265Z,0.04
2023-01-31T03:18:37.553Z,0.04
2023-01-31T03:21:13.152Z,0.04
2023-01-31T03:23:41.732Z,0.03
2023-01-31T03:26:10.327Z,0.01
2023-01-31T03:28:41.969Z,-0.01
2023-01-31T03:31:20.284Z,0.00
2023-01-31T03:33:50.733Z,-0.01
2023-01-31T03:36:38.333Z,-0.03
2023-01-31T03:39:51.471Z,-0.04
2023-01-31T03:42:23.823Z,-0.01
2023-01-31T03:44:56.856Z,-0.01
2023-01-31T03:47:28.348Z,-0.01
2023-01-31T03:49:58.685Z,-0.03
2023-01-31T03:52:32.447Z,-0.02
2023-01-31T03:55:10.698Z,-0.02
2023-01-31T03:57:40.605Z,-0.02
2023-01-31T04:00:11.916Z,-0.00
2023-01-31T04:02:53.654Z,-0.02
2023-01-31T04:05:23.662Z,-0.03
2023-01-31T04:07:54.591Z,-0.04
2023-01-31T04:10:26.359Z,-0.04
2023-01-31T04:12:58.004Z,-0.04
2023-01-31T04:15:26.893Z,-0.04
2023-01-31T04:17:55.784Z,-0.04
2023-01-31T04:20:24.685Z,-0.03
2023-01-31T04:22:53.148Z,-0.05
2023-01-31T04:25:26.379Z,-0.05
2023-01-31T04:27:54.922Z,-0.03
2023-01-31T04:30:23.703Z,-0.02
2023-01-31T04:32:52.287Z,0.00
2023-01-31T04:35:21.781Z,-0.02
2023-01-31T04:37:50.983Z,-0.02
2023-01-31T04:40:22.436Z,-0.03
2023-01-31T04:42:51.222Z,-0.03
2023-01-31T04:45:19.901Z,-0.02
2023-01-31T04:47:49.203Z,-0.03
2023-01-31T04:50:18.088Z,0.01
2023-01-31T04:52:50.356Z,0.04
2023-01-31T04:55:19.959Z,0.07
2023-01-31T04:57:48.544Z,0.08
2023-01-31T05:00:17.845Z,0.04
2023-01-31T05:02:47.175Z,0.05
2023-01-31T05:05:15.824Z,0.06
2023-01-31T05:07:45.146Z,0.05
2023-01-31T05:10:13.603Z,0.04
2023-01-31T05:12:41.981Z,0.03
2023-01-31T05:15:13.940Z,0.05
2023-01-31T05:17:43.134Z,0.07
2023-01-31T05:20:12.327Z,0.10
2023-01-31T05:22:41.629Z,0.11
2023-01-31T05:25:10.104Z,0.13
2023-01-31T05:27:38.592Z,0.13
2023-01-31T05:30:08.312Z,0.15
2023-01-31T05:32:37.494Z,0.17
2023-01-31T05:35:06.901Z,0.21
2023-01-31T05:37:35.920Z,0.22
2023-01-31T05:40:04.828Z,0.22
2023-01-31T05:42:33.172Z,0.19
2023-01-31T05:45:01.772Z,0.18
2023-01-31T05:47:31.122Z,0.20
2023-01-31T05:49:59.522Z,0.19
2023-01-31T05:52:28.001Z,0.20
2023-01-31T05:54:57.220Z,0.23
2023-01-31T05:57:27.305Z,0.25
2023-01-31T06:00:01.396Z,0.27
2023-01-31T06:02:42.004Z,0.31
2023-01-31T06:05:10.464Z,0.29
2023-01-31T06:07:42.942Z,0.30
2023-01-31T06:10:12.096Z,0.30
2023-01-31T06:12:40.908Z,0.30
2023-01-31T06:15:10.278Z,0.33
2023-01-31T06:17:39.095Z,0.35
2023-01-31T06:20:10.511Z,0.38
2023-01-31T06:22:38.920Z,0.40
2023-01-31T06:25:07.844Z,0.43
2023-01-31T06:27:36.309Z,0.46
2023-01-31T06:30:05.208Z,0.50
2023-01-31T06:32:33.822Z,0.54
2023-01-31T06:35:02.953Z,0.59
2023-01-31T06:37:31.942Z,0.67
2023-01-31T06:40:00.300Z,0.65
2023-01-31T06:42:28.605Z,0.65
2023-01-31T06:44:57.477Z,0.64
2023-01-31T06:47:25.725Z,0.67
2023-01-31T06:49:54.431Z,0.70
2023-01-31T06:52:23.158Z,0.74
2023-01-31T06:54:51.809Z,0.78
2023-01-31T06:57:20.185Z,0.84
2023-01-31T06:59:48.870Z,0.86
2023-01-31T07:02:17.675Z,0.89
2023-01-31T07:04:46.666Z,0.92
2023-01-31T07:07:15.078Z,0.96
2023-01-31T07:09:43.465Z,0.99
2023-01-31T07:12:11.853Z,0.97
2023-01-31T07:14:41.192Z,0.99
2023-01-31T07:17:09.481Z,1.01
2023-01-31T07:19:37.735Z,1.07
2023-01-31T07:22:06.068Z,1.10
2023-01-31T07:24:34.582Z,1.13
2023-01-31T07:27:05.108Z,1.16
2023-01-31T07:29:35.807Z,1.21
2023-01-31T07:32:05.895Z,1.23
2023-01-31T07:34:34.950Z,1.31
2023-01-31T07:37:03.743Z,1.35
2023-01-31T07:39:32.343Z,1.41
2023-01-31T07:42:02.946Z,1.46
2023-01-31T07:44:32.134Z,1.50
2023-01-31T07:47:01.134Z,1.55
2023-01-31T07:49:30.124Z,1.60
2023-01-31T07:51:58.713Z,1.64
2023-01-31T07:54:28.618Z,1.63
2023-01-31T07:56:57.734Z,1.58
2023-01-31T07:59:26.505Z,1.56
2023-01-31T08:02:13.411Z,1.55
2023-01-31T08:04:42.336Z,1.53
2023-01-31T08:07:12.655Z,1.49
2023-01-31T08:09:45.176Z,1.47
2023-01-31T08:12:17.771Z,1.42
2023-01-31T08:14:46.700Z,1.38
2023-01-31T08:17:17.309Z,1.38
2023-01-31T08:19:46.346Z,1.38
2023-01-31T08:22:14.634Z,1.38
2023-01-31T08:24:43.245Z,1.45
2023-01-31T08:27:11.478Z,1.48
2023-01-31T08:29:39.700Z,1.53
2023-01-31T08:32:07.998Z,1.58
2023-01-31T08:34:42.552Z,1.67
2023-01-31T08:37:13.593Z,1.73
2023-01-31T08:39:43.737Z,1.76
2023-01-31T08:42:12.014Z,1.86
2023-01-31T08:44:41.108Z,1.97
2023-01-31T08:47:10.137Z,2.03
2023-01-31T08:49:41.040Z,2.07
2023-01-31T08:52:09.320Z,2.08
2023-01-31T08:54:37.822Z,2.08
2023-01-31T08:57:06.186Z,2.07
2023-01-31T08:59:34.616Z,2.05
2023-01-31T09:02:03.055Z,1.97
2023-01-31T09:04:31.440Z,1.92
2023-01-31T09:06:59.721Z,1.89
2023-01-31T09:09:30.714Z,1.83
2023-01-31T09:11:59.044Z,1.79
2023-01-31T09:14:36.037Z,1.79
2023-01-31T09:17:05.835Z,1.78
2023-01-31T09:19:35.197Z,1.78
2023-01-31T09:22:03.655Z,1.82
2023-01-31T09:24:32.255Z,1.80
2023-01-31T09:27:01.403Z,1.77
2023-01-31T09:29:30.869Z,1.75
2023-01-31T09:32:00.324Z,1.75
2023-01-31T09:34:28.859Z,1.77
2023-01-31T09:36:58.131Z,1.77
2023-01-31T09:39:27.412Z,1.77
2023-01-31T09:42:04.699Z,1.75
2023-01-31T09:44:33.806Z,1.76
2023-01-31T09:47:29.980Z,1.77
2023-01-31T09:50:01.810Z,1.77
2023-01-31T09:52:33.917Z,1.84
2023-01-31T09:55:04.078Z,1.90
2023-01-31T09:58:14.432Z,1.92
2023-01-31T10:00:58.186Z,1.95
2023-01-31T10:03:46.056Z,1.97
2023-01-31T10:06:56.354Z,1.98
2023-01-31T10:09:32.238Z,1.96
2023-01-31T10:12:10.717Z,1.94
2023-01-31T10:14:54.154Z,1.96
2023-01-31T10:17:26.949Z,1.94
2023-01-31T10:20:09.646Z,1.92
2023-01-31T10:22:40.530Z,1.89
2023-01-31T10:25:21.370Z,1.87
2023-01-31T10:28:38.265Z,1.86
2023-01-31T10:31:30.664Z,1.87
2023-01-31T10:34:18.399Z,1.88
2023-01-31T10:37:08.952Z,1.90
2023-01-31T10:39:41.394Z,1.93
2023-01-31T10:42:18.478Z,1.99
2023-01-31T10:45:01.901Z,2.04
2023-01-31T10:47:35.297Z,2.10
2023-01-31T10:50:16.382Z,2.10
2023-01-31T10:52:57.247Z,2.08
2023-01-31T10:55:25.632Z,2.08
2023-01-31T10:57:54.023Z,2.08
2023-01-31T11:00:31.188Z,2.05
2023-01-31T11:02:59.670Z,2.03
2023-01-31T11:05:30.584Z,2.07
2023-01-31T11:07:59.692Z,2.11
2023-01-31T11:10:30.074Z,2.15
2023-01-31T11:13:02.284Z,2.18
2023-01-31T11:15:39.882Z,2.22
2023-01-31T11:18:13.681Z,2.24
2023-01-31T11:20:46.278Z,2.22
2023-01-31T11:23:15.614Z,2.25
2023-01-31T11:25:48.474Z,2.20
2023-01-31T11:28:27.881Z,2.17
2023-01-31T11:30:56.306Z,2.20
2023-01-31T11:33:47.680Z,2.21
2023-01-31T11:36:17.548Z,2.23
2023-01-31T11:38:46.188Z,2.24
2023-01-31T11:41:34.812Z,2.28
2023-01-31T11:44:06.876Z,2.34
2023-01-31T11:46:43.339Z,2.37
2023-01-31T11:49:18.689Z,2.39
2023-01-31T11:51:47.090Z,2.43
2023-01-31T11:54:20.468Z,2.47
2023-01-31T11:56:49.122Z,2.47
2023-01-31T11:59:20.698Z,2.47
2023-01-31T12:01:53.627Z,2.46
2023-01-31T12:04:33.313Z,2.46
2023-01-31T12:07:04.160Z,2.45
2023-01-31T12:09:43.597Z,2.44
2023-01-31T12:12:34.397Z,2.44
2023-01-31T12:15:13.679Z,2.44
2023-01-31T12:17:44.883Z,2.41
2023-01-31T12:20:29.045Z,2.27
2023-01-31T12:23:06.572Z,2.22
2023-01-31T12:25:50.804Z,2.26
2023-01-31T12:28:33.315Z,2.24
2023-01-31T12:31:23.294Z,2.26
2023-01-31T12:34:19.570Z,2.28
2023-01-31T12:36:53.886Z,2.27
2023-01-31T12:39:48.069Z,2.26
2023-01-31T12:42:33.674Z,2.27
2023-01-31T12:45:37.076Z,2.31
2023-01-31T12:48:21.301Z,2.23
2023-01-31T12:51:12.813Z,2.19
2023-01-31T12:53:53.165Z,2.12
2023-01-31T12:56:33.928Z,2.09
2023-01-31T12:59:21.692Z,2.08
2023-01-31T13:01:52.804Z,2.08
2023-01-31T13:04:35.980Z,2.08
2023-01-31T13:07:15.358Z,2.09
2023-01-31T13:09:43.809Z,2.09
2023-01-31T13:12:17.038Z,2.08
2023-01-31T13:14:57.185Z,2.09
2023-01-31T13:17:27.306Z,2.10
2023-01-31T13:19:58.387Z,2.08
2023-01-31T13:22:37.329Z,2.11
2023-01-31T13:25:43.502Z,2.20
2023-01-31T13:28:13.553Z,2.19
2023-01-31T13:30:48.886Z,2.18
2023-01-31T13:33:23.426Z,2.19
2023-01-31T13:36:24.453Z,2.20
2023-01-31T13:38:52.938Z,2.24
2023-01-31T13:41:41.202Z,2.19
2023-01-31T13:44:12.727Z,2.12
2023-01-31T13:46:46.286Z,2.09
2023-01-31T13:49:41.628Z,2.09
2023-01-31T13:52:31.945Z,2.08
2023-01-31T13:55:08.216Z,2.08
2023-01-31T13:57:47.343Z,2.06
2023-01-31T14:00:59.514Z,2.03
2023-01-31T14:03:28.096Z,2.00
2023-01-31T14:06:00.793Z,1.99
2023-01-31T14:08:39.907Z,2.09
2023-01-31T14:11:14.359Z,2.08
2023-01-31T14:13:47.227Z,2.00
2023-01-31T14:16:43.892Z,1.95
2023-01-31T14:19:24.040Z,2.01
2023-01-31T14:22:14.489Z,1.98
2023-01-31T14:24:56.995Z,1.90
2023-01-31T14:27:35.311Z,1.88
2023-01-31T14:30:06.982Z,1.86
2023-01-31T14:32:47.447Z,1.87
2023-01-31T14:35:16.209Z,1.84
2023-01-31T14:38:10.410Z,1.81
2023-01-31T14:40:44.412Z,1.80
2023-01-31T14:43:40.512Z,1.77
2023-01-31T14:46:36.857Z,1.79
2023-01-31T14:49:30.122Z,1.78
2023-01-31T14:52:20.005Z,1.78
2023-01-31T14:55:09.984Z,1.76
2023-01-31T14:57:45.945Z,1.72
2023-01-31T15:00:15.168Z,1.70
2023-01-31T15:03:06.523Z,1.72
2023-01-31T15:05:37.825Z,1.76
2023-01-31T15:08:28.284Z,1.74
2023-01-31T15:11:05.196Z,1.72
2023-01-31T15:13:54.301Z,1.70
2023-01-31T15:16:36.501Z,1.68
2023-01-31T15:19:14.472Z,1.67
2023-01-31T15:21:55.545Z,1.64
2023-01-31T15:24:36.304Z,1.60
2023-01-31T15:27:12.737Z,1.58
2023-01-31T15:30:09.587Z,1.57
2023-01-31T15:32:46.145Z,1.56
2023-01-31T15:35:20.984Z,1.54
2023-01-31T15:38:15.227Z,1.54
2023-01-31T15:40:45.043Z,1.54
2023-01-31T15:43:24.427Z,1.52
2023-01-31T15:45:53.065Z,1.50
2023-01-31T15:48:21.711Z,1.52
2023-01-31T15:50:57.264Z,1.54
2023-01-31T15:53:27.120Z,1.55
2023-01-31T15:55:56.996Z,1.55
2023-01-31T15:58:29.223Z,1.55
2023-01-31T16:00:59.639Z,1.54
2023-01-31T16:03:29.986Z,1.52
2023-01-31T16:05:59.155Z,1.48
2023-01-31T16:08:34.161Z,1.48
2023-01-31T16:11:04.954Z,1.46
2023-01-31T16:13:40.253Z,1.44
2023-01-31T16:16:14.590Z,1.42
2023-01-31T16:18:51.664Z,1.40
2023-01-31T16:21:26.295Z,1.39
2023-01-31T16:24:13.799Z,1.36
2023-01-31T16:27:00.568Z,1.33
2023-01-31T16:29:42.913Z,1.31
2023-01-31T16:32:33.716Z,1.30
2023-01-31T16:35:07.873Z,1.31
2023-01-31T16:37:40.402Z,1.30
2023-01-31T16:43:29.875Z,1.23
2023-01-31T16:46:03.448Z,1.19
2023-01-31T16:48:38.449Z,1.16
2023-01-31T16:51:22.634Z,1.28
2023-01-31T16:54:18.115Z,1.28
2023-01-31T16:56:47.524Z,1.27
2023-01-31T16:59:34.348Z,1.25
2023-01-31T17:02:19.639Z,1.23
2023-01-31T17:04:52.444Z,1.15
2023-01-31T17:07:20.760Z,1.12
2023-01-31T17:09:49.955Z,1.10
2023-01-31T17:12:29.181Z,1.09
2023-01-31T17:15:01.563Z,1.12
2023-01-31T17:17:37.415Z,1.08
2023-01-31T17:20:06.619Z,1.05
2023-01-31T17:22:35.504Z,1.06
2023-01-31T17:25:16.420Z,1.06
2023-01-31T17:27:46.380Z,1.07
2023-01-31T17:30:16.154Z,1.08
2023-01-31T17:32:44.557Z,1.10
2023-01-31T17:35:26.212Z,1.14
2023-01-31T17:37:54.727Z,1.19
2023-01-31T17:40:23.075Z,1.18
2023-01-31T17:42:55.996Z,1.14
2023-01-31T17:45:24.582Z,1.16
2023-01-31T17:47:53.143Z,1.16
2023-01-31T17:50:23.780Z,1.17
2023-01-31T17:52:52.565Z,1.18
2023-01-31T17:55:23.442Z,1.20
2023-01-31T17:57:52.618Z,1.25
2023-01-31T18:00:24.866Z,1.22
2023-01-31T18:02:55.577Z,1.24
2023-01-31T18:05:38.401Z,1.23
2023-01-31T18:08:08.522Z,1.20
2023-01-31T18:10:37.418Z,1.20
2023-01-31T18:13:07.641Z,1.19
2023-01-31T18:15:36.732Z,1.17
2023-01-31T18:18:08.918Z,1.15
2023-01-31T18:20:38.932Z,1.14
2023-01-31T18:23:07.320Z,1.12
2023-01-31T18:25:36.305Z,1.18
2023-01-31T18:28:05.368Z,1.16
2023-01-31T18:30:34.340Z,1.15
2023-01-31T18:33:02.837Z,1.16
2023-01-31T18:35:33.983Z,1.14
2023-01-31T18:38:08.057Z,1.13
2023-01-31T18:40:39.860Z,1.13
2023-01-31T18:43:09.052Z,1.12
2023-01-31T18:45:38.441Z,1.12
2023-01-31T18:48:08.467Z,1.11
2023-01-31T18:50:38.074Z,1.09
2023-01-31T18:53:07.575Z,1.06
2023-01-31T18:55:35.843Z,1.03
2023-01-31T18:58:04.934Z,1.02
2023-01-31T19:00:33.399Z,1.02
2023-01-31T19:03:01.995Z,1.01
2023-01-31T19:05:30.785Z,1.01
2023-01-31T19:08:01.006Z,1.01
2023-01-31T19:10:29.991Z,0.97
2023-01-31T19:12:58.383Z,0.97
2023-01-31T19:15:26.851Z,0.98
2023-01-31T19:17:56.965Z,0.99
2023-01-31T19:20:25.241Z,0.97
2023-01-31T19:22:53.924Z,0.95
2023-01-31T19:25:22.676Z,0.92
2023-01-31T19:27:51.405Z,0.92
2023-01-31T19:30:20.078Z,0.93
2023-01-31T19:32:48.763Z,0.92
2023-01-31T19:35:17.241Z,0.90
2023-01-31T19:37:45.721Z,0.90
2023-01-31T19:40:14.198Z,0.89
2023-01-31T19:42:44.111Z,0.90
2023-01-31T19:45:22.558Z,0.89
2023-01-31T19:47:51.516Z,0.88
2023-01-31T19:50:21.735Z,0.88
2023-01-31T19:52:50.420Z,0.90
2023-01-31T19:55:19.052Z,0.88
2023-01-31T19:57:49.121Z,0.88
2023-01-31T20:00:17.802Z,0.89
2023-01-31T20:02:46.589Z,0.89
2023-01-31T20:05:19.087Z,0.89
2023-01-31T20:07:49.893Z,0.92
2023-01-31T20:10:19.476Z,0.91
2023-01-31T20:12:48.595Z,0.92
2023-01-31T20:15:17.387Z,0.91
2023-01-31T20:17:45.878Z,0.89
2023-01-31T20:20:14.860Z,0.88
2023-01-31T20:22:43.235Z,0.88
2023-01-31T20:25:11.814Z,0.88
2023-01-31T20:27:40.388Z,0.88
2023-01-31T20:30:09.940Z,0.88
2023-01-31T20:32:38.268Z,0.89
2023-01-31T20:35:07.291Z,0.90
2023-01-31T20:37:35.708Z,0.89
2023-01-31T20:40:04.182Z,0.87
2023-01-31T20:42:33.008Z,0.87
2023-01-31T20:45:01.493Z,0.90
2023-01-31T20:47:30.474Z,0.87
2023-01-31T20:49:58.953Z,0.88
2023-01-31T20:52:27.536Z,0.88
2023-01-31T20:54:56.116Z,0.83
2023-01-31T20:57:25.210Z,0.84
2023-01-31T20:59:53.612Z,0.79
2023-01-31T21:02:22.217Z,0.84
2023-01-31T21:04:51.363Z,0.85
2023-01-31T21:07:20.053Z,0.86
2023-01-31T21:09:48.638Z,0.88
2023-01-31T21:12:17.643Z,0.89
2023-01-31T21:14:47.123Z,0.87
2023-01-31T21:17:20.717Z,0.84
2023-01-31T21:19:51.148Z,0.84
2023-01-31T21:22:19.351Z,0.86
2023-01-31T21:24:49.556Z,0.84
2023-01-31T21:27:31.528Z,0.79
2023-01-31T21:29:59.911Z,0.80
2023-01-31T21:32:28.673Z,0.78
2023-01-31T21:34:57.085Z,0.79
2023-01-31T21:37:25.589Z,0.78
2023-01-31T21:39:54.547Z,0.78
2023-01-31T21:42:23.129Z,0.77
2023-01-31T21:44:52.117Z,0.78
2023-01-31T21:47:20.493Z,0.80
2023-01-31T21:49:49.178Z,0.80
2023-01-31T21:52:17.870Z,0.78
2023-01-31T21:54:46.343Z,0.79
2023-01-31T21:57:14.922Z,0.79
2023-01-31T21:59:45.670Z,0.78
2023-01-31T22:02:14.443Z,0.78
2023-01-31T22:04:42.730Z,0.76
2023-01-31T22:07:11.711Z,0.76
2023-01-31T22:09:40.195Z,0.72
2023-01-31T22:12:09.029Z,0.73
2023-01-31T22:14:37.560Z,0.70
2023-01-31T22:17:06.037Z,0.70
2023-01-31T22:19:35.229Z,0.74
2023-01-31T22:22:03.707Z,0.76
2023-01-31T22:24:34.742Z,0.70
2023-01-31T22:27:03.104Z,0.68
2023-01-31T22:29:31.445Z,0.70
2023-01-31T22:32:00.561Z,0.69
2023-01-31T22:34:29.584Z,0.70
2023-01-31T22:36:58.179Z,0.77
2023-01-31T22:39:26.852Z,0.78
2023-01-31T22:41:55.328Z,0.78
2023-01-31T22:44:24.467Z,0.75
2023-01-31T22:46:52.918Z,0.72
2023-01-31T22:49:21.496Z,0.70
2023-01-31T22:51:51.207Z,0.71
2023-01-31T22:54:19.770Z,0.70
2023-01-31T22:56:48.151Z,0.68
2023-01-31T22:59:16.832Z,0.67
2023-01-31T23:01:45.427Z,0.66
2023-01-31T23:04:13.900Z,0.66
2023-01-31T23:06:42.371Z,0.65
2023-01-31T23:09:11.261Z,0.65
2023-01-31T23:11:41.074Z,0.65
2023-01-31T23:14:09.663Z,0.64
2023-01-31T23:16:56.669Z,0.65
2023-01-31T23:19:28.318Z,0.62
2023-01-31T23:21:56.698Z,0.63
2023-01-31T23:24:25.175Z,0.63
2023-01-31T23:26:54.797Z,0.63
2023-01-31T23:29:23.566Z,0.64
2023-01-31T23:31:52.079Z,0.65
2023-01-31T23:34:20.630Z,0.65
2023-01-31T23:36:49.109Z,0.64
2023-01-31T23:39:17.483Z,0.61
2023-01-31T23:41:46.073Z,0.62
2023-01-31T23:44:15.154Z,0.61
2023-01-31T23:46:44.464Z,0.61
2023-01-31T23:49:12.732Z,0.64
2023-01-31T23:51:41.109Z,0.66
2023-01-31T23:54:10.719Z,0.64
2023-01-31T23:56:38.990Z,0.65
2023-01-31T23:59:07.231Z,0.62
